Aeroporto :
LOGIN :

Iscrizione | Disclaimer

   EN    FR    IT 

 










Sommario :    VFR   VFR Marginale   IFR   IFR Intensivo   IFR Molto Intensivo
Visibilità : 
Base nubi : 
>= 8 km
>= 3000ft
5 / 8 km
1000 / 3000 ft
1500m / 5 km
500 / 1000 ft
800 / 1500m
200 / 500 ft
< 800m
< 200 ft
Simboli :   Temporali  Nebbia  Neve Forte  Precipitazioni Forti  Vento > 20 kt
SIGMETs :   Varie  Temporali  Ghiacco  Turbolenza  Onda orograficha  Ceneri Vulcaniche







- Altitudine del aeroporto : 650 ft
- Codice IATA : ZJI


LSZL - Locarno

ULTIMO METAR :
  • 241320Z 11016G27KT 080V150 CAVOK 23/01 Q1022 RMK BLU

METARs OBSOLETI :
  • 241250Z 11016KT 080V140 CAVOK 23/01 Q1021 RMK BLU
  • 241220Z 11017KT 070V140 CAVOK 24/M01 Q1021 RMK BLU
  • 241150Z 11016KT 070V160 CAVOK 24/01 Q1020 RMK BLU
  • 241120Z 11015G25KT 080V140 CAVOK 24/01 Q1020 RMK BLU
  • 241050Z 11014KT 080V160 9999 FEW070 23/02 Q1020 RMK BLU+

TAF TAF LSZL
Valido dal 24 a 12 ore il 24 a 21 ore UTC


241125Z 2412/2421 11014KT CAVOK
TEMPO 2412/2418 10018G33KT
Nessun NOTAM noto per questo aeroporto.



MetMap, La meteo Aeronautica in un colpo d'occhio ! - Copyright ORBIFLY Dicembre 2007 - Disclaimer

ORBIFLY MET'MAP TEAM :

Programmazione e sviluppo : Alexandra Zaïnal
Concezione e sviluppo : Baudouin d'Aumeries
Co-Programmazione e sviluppo : Marc-Olivier Méhu
Supporto tecnico e logistico : Manuel Goepfert
Aiuto per la traduzione : Arnaldo La Scala

Contatto : metmap@orbifly.com




FONTI E CREDITI :

   NOAA